sensor_id;sensor_type;location;lat;lon;timestamp;temperature;humidity
76293;DHT22;67256;51.154;4.164;2023-11-21T00:00:31;11.30;94.90
76293;DHT22;67256;51.154;4.164;2023-11-21T00:02:57;11.30;94.90
76293;DHT22;67256;51.154;4.164;2023-11-21T00:05:24;11.30;95.00
76293;DHT22;67256;51.154;4.164;2023-11-21T00:07:49;11.40;95.10
76293;DHT22;67256;51.154;4.164;2023-11-21T00:10:16;11.40;95.10
76293;DHT22;67256;51.154;4.164;2023-11-21T00:12:42;11.50;95.20
76293;DHT22;67256;51.154;4.164;2023-11-21T00:15:09;11.40;95.30
76293;DHT22;67256;51.154;4.164;2023-11-21T00:17:37;11.50;95.40
76293;DHT22;67256;51.154;4.164;2023-11-21T00:20:03;11.50;95.40
76293;DHT22;67256;51.154;4.164;2023-11-21T00:22:33;11.50;95.50
76293;DHT22;67256;51.154;4.164;2023-11-21T00:24:58;11.50;95.50
76293;DHT22;67256;51.154;4.164;2023-11-21T00:27:24;11.50;95.70
76293;DHT22;67256;51.154;4.164;2023-11-21T00:29:50;11.50;95.60
76293;DHT22;67256;51.154;4.164;2023-11-21T00:32:16;11.50;96.00
76293;DHT22;67256;51.154;4.164;2023-11-21T00:34:42;11.50;96.40
76293;DHT22;67256;51.154;4.164;2023-11-21T00:37:08;11.60;96.40
76293;DHT22;67256;51.154;4.164;2023-11-21T00:39:34;11.60;96.30
76293;DHT22;67256;51.154;4.164;2023-11-21T00:42:00;11.70;96.20
76293;DHT22;67256;51.154;4.164;2023-11-21T00:44:26;11.70;96.10
76293;DHT22;67256;51.154;4.164;2023-11-21T00:46:52;11.70;96.10
76293;DHT22;67256;51.154;4.164;2023-11-21T00:49:18;11.70;96.00
76293;DHT22;67256;51.154;4.164;2023-11-21T00:51:44;11.70;96.00
76293;DHT22;67256;51.154;4.164;2023-11-21T00:54:09;11.70;96.00
76293;DHT22;67256;51.154;4.164;2023-11-21T00:56:35;11.70;96.00
76293;DHT22;67256;51.154;4.164;2023-11-21T00:59:01;11.70;96.10
76293;DHT22;67256;51.154;4.164;2023-11-21T01:01:27;11.80;96.20
76293;DHT22;67256;51.154;4.164;2023-11-21T01:03:53;11.80;96.30
76293;DHT22;67256;51.154;4.164;2023-11-21T01:06:19;11.80;96.30
76293;DHT22;67256;51.154;4.164;2023-11-21T01:08:45;11.80;96.40
76293;DHT22;67256;51.154;4.164;2023-11-21T01:11:11;11.80;96.40
76293;DHT22;67256;51.154;4.164;2023-11-21T01:13:41;11.80;96.80
76293;DHT22;67256;51.154;4.164;2023-11-21T01:16:08;11.80;96.70
76293;DHT22;67256;51.154;4.164;2023-11-21T01:18:35;11.90;96.60
76293;DHT22;67256;51.154;4.164;2023-11-21T01:21:01;11.80;96.70
76293;DHT22;67256;51.154;4.164;2023-11-21T01:23:27;11.90;96.80
76293;DHT22;67256;51.154;4.164;2023-11-21T01:25:56;11.90;96.80
76293;DHT22;67256;51.154;4.164;2023-11-21T01:28:22;11.90;96.80
76293;DHT22;67256;51.154;4.164;2023-11-21T01:30:48;11.90;96.70
76293;DHT22;67256;51.154;4.164;2023-11-21T01:33:14;11.90;96.70
76293;DHT22;67256;51.154;4.164;2023-11-21T01:35:41;11.90;96.90
76293;DHT22;67256;51.154;4.164;2023-11-21T01:38:07;11.90;97.00
76293;DHT22;67256;51.154;4.164;2023-11-21T01:40:34;11.90;97.00
76293;DHT22;67256;51.154;4.164;2023-11-21T01:43:00;11.90;97.00
76293;DHT22;67256;51.154;4.164;2023-11-21T01:45:28;11.90;97.00
76293;DHT22;67256;51.154;4.164;2023-11-21T01:47:56;11.90;96.90
76293;DHT22;67256;51.154;4.164;2023-11-21T01:50:24;11.90;97.00
76293;DHT22;67256;51.154;4.164;2023-11-21T01:52:52;11.90;97.10
76293;DHT22;67256;51.154;4.164;2023-11-21T01:55:19;11.90;97.10
76293;DHT22;67256;51.154;4.164;2023-11-21T01:57:48;11.90;97.10
76293;DHT22;67256;51.154;4.164;2023-11-21T02:00:14;11.90;97.00
76293;DHT22;67256;51.154;4.164;2023-11-21T02:02:45;11.90;97.10
76293;DHT22;67256;51.154;4.164;2023-11-21T02:05:13;11.90;97.00
76293;DHT22;67256;51.154;4.164;2023-11-21T02:07:41;12.00;97.00
76293;DHT22;67256;51.154;4.164;2023-11-21T02:10:09;12.00;97.00
76293;DHT22;67256;51.154;4.164;2023-11-21T02:12:35;12.00;97.00
76293;DHT22;67256;51.154;4.164;2023-11-21T02:15:04;12.00;96.90
76293;DHT22;67256;51.154;4.164;2023-11-21T02:17:36;12.00;96.90
76293;DHT22;67256;51.154;4.164;2023-11-21T02:20:02;12.00;96.90
76293;DHT22;67256;51.154;4.164;2023-11-21T02:22:31;12.00;96.90
76293;DHT22;67256;51.154;4.164;2023-11-21T02:24:59;12.00;96.90
76293;DHT22;67256;51.154;4.164;2023-11-21T02:27:25;12.00;96.90
76293;DHT22;67256;51.154;4.164;2023-11-21T02:29:52;12.00;96.90
76293;DHT22;67256;51.154;4.164;2023-11-21T02:32:18;12.00;96.90
76293;DHT22;67256;51.154;4.164;2023-11-21T02:34:45;12.00;96.80
76293;DHT22;67256;51.154;4.164;2023-11-21T02:37:11;12.00;96.80
76293;DHT22;67256;51.154;4.164;2023-11-21T02:39:37;12.00;96.90
76293;DHT22;67256;51.154;4.164;2023-11-21T02:42:03;12.00;96.90
76293;DHT22;67256;51.154;4.164;2023-11-21T02:44:29;12.00;97.00
76293;DHT22;67256;51.154;4.164;2023-11-21T02:46:55;12.00;97.00
76293;DHT22;67256;51.154;4.164;2023-11-21T02:49:23;12.00;97.00
76293;DHT22;67256;51.154;4.164;2023-11-21T02:51:49;12.00;97.10
76293;DHT22;67256;51.154;4.164;2023-11-21T02:54:15;12.00;97.00
76293;DHT22;67256;51.154;4.164;2023-11-21T02:56:42;12.00;97.00
76293;DHT22;67256;51.154;4.164;2023-11-21T02:59:08;12.00;97.10
76293;DHT22;67256;51.154;4.164;2023-11-21T03:01:34;12.00;97.10
76293;DHT22;67256;51.154;4.164;2023-11-21T03:04:00;12.10;97.10
76293;DHT22;67256;51.154;4.164;2023-11-21T03:06:27;12.00;97.00
76293;DHT22;67256;51.154;4.164;2023-11-21T03:08:53;12.00;97.10
76293;DHT22;67256;51.154;4.164;2023-11-21T03:11:18;12.00;97.20
76293;DHT22;67256;51.154;4.164;2023-11-21T03:13:45;12.00;97.10
76293;DHT22;67256;51.154;4.164;2023-11-21T03:16:11;12.10;97.20
76293;DHT22;67256;51.154;4.164;2023-11-21T03:18:38;12.10;97.10
76293;DHT22;67256;51.154;4.164;2023-11-21T03:21:05;12.10;97.10
76293;DHT22;67256;51.154;4.164;2023-11-21T03:23:31;12.10;97.10
76293;DHT22;67256;51.154;4.164;2023-11-21T03:25:58;12.10;97.10
76293;DHT22;67256;51.154;4.164;2023-11-21T03:28:25;12.10;97.10
76293;DHT22;67256;51.154;4.164;2023-11-21T03:30:52;12.10;97.10
76293;DHT22;67256;51.154;4.164;2023-11-21T03:33:18;12.10;97.10
76293;DHT22;67256;51.154;4.164;2023-11-21T03:35:43;12.10;97.10
76293;DHT22;67256;51.154;4.164;2023-11-21T03:38:10;12.10;97.10
76293;DHT22;67256;51.154;4.164;2023-11-21T03:40:36;12.10;97.10
76293;DHT22;67256;51.154;4.164;2023-11-21T03:43:02;12.10;97.10
76293;DHT22;67256;51.154;4.164;2023-11-21T03:45:28;12.10;97.10
76293;DHT22;67256;51.154;4.164;2023-11-21T03:47:54;12.10;97.10
76293;DHT22;67256;51.154;4.164;2023-11-21T03:50:20;12.10;97.20
76293;DHT22;67256;51.154;4.164;2023-11-21T03:52:45;12.10;97.20
76293;DHT22;67256;51.154;4.164;2023-11-21T03:55:12;12.10;97.10
76293;DHT22;67256;51.154;4.164;2023-11-21T03:57:38;12.10;97.30
76293;DHT22;67256;51.154;4.164;2023-11-21T04:00:04;12.20;97.20
76293;DHT22;67256;51.154;4.164;2023-11-21T04:02:34;12.10;97.30
76293;DHT22;67256;51.154;4.164;2023-11-21T04:04:59;12.20;97.30
76293;DHT22;67256;51.154;4.164;2023-11-21T04:07:26;12.10;97.20
76293;DHT22;67256;51.154;4.164;2023-11-21T04:09:52;12.20;97.30
76293;DHT22;67256;51.154;4.164;2023-11-21T04:12:19;12.10;97.20
76293;DHT22;67256;51.154;4.164;2023-11-21T04:14:45;12.10;97.30
76293;DHT22;67256;51.154;4.164;2023-11-21T04:17:10;12.10;97.30
76293;DHT22;67256;51.154;4.164;2023-11-21T04:19:36;12.10;97.40
76293;DHT22;67256;51.154;4.164;2023-11-21T04:22:02;12.10;97.40
76293;DHT22;67256;51.154;4.164;2023-11-21T04:24:29;12.10;97.50
76293;DHT22;67256;51.154;4.164;2023-11-21T04:26:55;12.10;97.50
76293;DHT22;67256;51.154;4.164;2023-11-21T04:29:21;12.20;97.60
76293;DHT22;67256;51.154;4.164;2023-11-21T04:31:47;12.20;97.50
76293;DHT22;67256;51.154;4.164;2023-11-21T04:34:15;12.20;97.60
76293;DHT22;67256;51.154;4.164;2023-11-21T04:36:41;12.20;97.60
76293;DHT22;67256;51.154;4.164;2023-11-21T04:39:07;12.20;97.50
76293;DHT22;67256;51.154;4.164;2023-11-21T04:41:32;12.20;97.50
76293;DHT22;67256;51.154;4.164;2023-11-21T04:43:59;12.20;97.50
76293;DHT22;67256;51.154;4.164;2023-11-21T04:46:26;12.20;97.50
76293;DHT22;67256;51.154;4.164;2023-11-21T04:48:52;12.30;97.50
76293;DHT22;67256;51.154;4.164;2023-11-21T04:51:18;12.30;97.50
76293;DHT22;67256;51.154;4.164;2023-11-21T04:53:43;12.30;97.50
76293;DHT22;67256;51.154;4.164;2023-11-21T04:56:09;12.30;97.50
76293;DHT22;67256;51.154;4.164;2023-11-21T04:58:35;12.30;97.60
76293;DHT22;67256;51.154;4.164;2023-11-21T05:01:01;12.30;97.70
76293;DHT22;67256;51.154;4.164;2023-11-21T05:03:27;12.30;97.60
76293;DHT22;67256;51.154;4.164;2023-11-21T05:05:55;12.20;97.60
76293;DHT22;67256;51.154;4.164;2023-11-21T05:08:21;12.30;97.70
76293;DHT22;67256;51.154;4.164;2023-11-21T05:10:48;12.30;97.70
76293;DHT22;67256;51.154;4.164;2023-11-21T05:13:14;12.30;97.60
76293;DHT22;67256;51.154;4.164;2023-11-21T05:15:41;12.30;97.70
76293;DHT22;67256;51.154;4.164;2023-11-21T05:18:07;12.30;97.60
76293;DHT22;67256;51.154;4.164;2023-11-21T05:20:32;12.30;97.60
76293;DHT22;67256;51.154;4.164;2023-11-21T05:22:58;12.30;97.60
76293;DHT22;67256;51.154;4.164;2023-11-21T05:25:24;12.40;97.60
76293;DHT22;67256;51.154;4.164;2023-11-21T05:27:50;12.40;97.60
76293;DHT22;67256;51.154;4.164;2023-11-21T05:30:16;12.40;97.60
76293;DHT22;67256;51.154;4.164;2023-11-21T05:32:42;12.30;97.60
76293;DHT22;67256;51.154;4.164;2023-11-21T05:35:08;12.40;97.70
76293;DHT22;67256;51.154;4.164;2023-11-21T05:37:38;12.40;97.70
76293;DHT22;67256;51.154;4.164;2023-11-21T05:40:08;12.40;97.70
76293;DHT22;67256;51.154;4.164;2023-11-21T05:42:34;12.40;97.70
76293;DHT22;67256;51.154;4.164;2023-11-21T05:45:01;12.40;97.70
76293;DHT22;67256;51.154;4.164;2023-11-21T05:47:43;12.30;97.80
76293;DHT22;67256;51.154;4.164;2023-11-21T05:50:13;12.30;97.80
76293;DHT22;67256;51.154;4.164;2023-11-21T05:52:43;12.40;97.70
76293;DHT22;67256;51.154;4.164;2023-11-21T05:55:10;12.30;97.80
76293;DHT22;67256;51.154;4.164;2023-11-21T05:57:37;12.30;97.80
76293;DHT22;67256;51.154;4.164;2023-11-21T06:00:11;12.20;98.00
76293;DHT22;67256;51.154;4.164;2023-11-21T06:02:52;12.20;98.10
76293;DHT22;67256;51.154;4.164;2023-11-21T06:05:24;12.20;98.10
76293;DHT22;67256;51.154;4.164;2023-11-21T06:07:51;12.20;98.30
76293;DHT22;67256;51.154;4.164;2023-11-21T06:10:19;12.20;98.20
76293;DHT22;67256;51.154;4.164;2023-11-21T06:12:45;12.30;98.20
76293;DHT22;67256;51.154;4.164;2023-11-21T06:15:11;12.30;98.20
76293;DHT22;67256;51.154;4.164;2023-11-21T06:17:40;12.30;98.00
76293;DHT22;67256;51.154;4.164;2023-11-21T06:20:10;12.30;98.20
76293;DHT22;67256;51.154;4.164;2023-11-21T06:22:41;12.20;98.20
76293;DHT22;67256;51.154;4.164;2023-11-21T06:25:07;12.10;98.30
76293;DHT22;67256;51.154;4.164;2023-11-21T06:27:45;11.80;99.00
76293;DHT22;67256;51.154;4.164;2023-11-21T06:30:12;11.40;99.90
76293;DHT22;67256;51.154;4.164;2023-11-21T06:32:39;11.40;99.90
76293;DHT22;67256;51.154;4.164;2023-11-21T06:35:06;11.30;99.90
76293;DHT22;67256;51.154;4.164;2023-11-21T06:37:33;11.50;99.90
76293;DHT22;67256;51.154;4.164;2023-11-21T06:40:00;11.70;99.90
76293;DHT22;67256;51.154;4.164;2023-11-21T06:42:26;11.70;99.80
76293;DHT22;67256;51.154;4.164;2023-11-21T06:44:52;11.80;99.80
76293;DHT22;67256;51.154;4.164;2023-11-21T06:47:19;11.90;99.70
76293;DHT22;67256;51.154;4.164;2023-11-21T06:49:46;11.70;99.80
76293;DHT22;67256;51.154;4.164;2023-11-21T06:52:15;11.70;99.90
76293;DHT22;67256;51.154;4.164;2023-11-21T06:54:41;11.70;99.90
76293;DHT22;67256;51.154;4.164;2023-11-21T06:57:07;11.60;99.90
76293;DHT22;67256;51.154;4.164;2023-11-21T06:59:33;11.70;99.90
76293;DHT22;67256;51.154;4.164;2023-11-21T07:01:59;11.70;99.90
76293;DHT22;67256;51.154;4.164;2023-11-21T07:04:25;11.90;99.90
76293;DHT22;67256;51.154;4.164;2023-11-21T07:06:54;12.00;99.60
76293;DHT22;67256;51.154;4.164;2023-11-21T07:09:20;11.90;99.90
76293;DHT22;67256;51.154;4.164;2023-11-21T07:11:51;11.90;99.90
76293;DHT22;67256;51.154;4.164;2023-11-21T07:14:18;11.90;99.80
76293;DHT22;67256;51.154;4.164;2023-11-21T07:16:45;11.80;99.80
76293;DHT22;67256;51.154;4.164;2023-11-21T07:19:11;11.90;99.90
76293;DHT22;67256;51.154;4.164;2023-11-21T07:21:38;11.80;99.90
76293;DHT22;67256;51.154;4.164;2023-11-21T07:24:05;11.90;99.90
76293;DHT22;67256;51.154;4.164;2023-11-21T07:26:32;11.90;99.90
76293;DHT22;67256;51.154;4.164;2023-11-21T07:28:59;11.80;99.90
76293;DHT22;67256;51.154;4.164;2023-11-21T07:31:25;11.80;99.90
76293;DHT22;67256;51.154;4.164;2023-11-21T07:33:51;11.80;99.90
76293;DHT22;67256;51.154;4.164;2023-11-21T07:36:19;11.80;99.90
76293;DHT22;67256;51.154;4.164;2023-11-21T07:38:46;11.60;99.90
76293;DHT22;67256;51.154;4.164;2023-11-21T07:41:12;11.50;99.90
76293;DHT22;67256;51.154;4.164;2023-11-21T07:43:41;11.40;99.90
76293;DHT22;67256;51.154;4.164;2023-11-21T07:46:07;11.30;99.90
76293;DHT22;67256;51.154;4.164;2023-11-21T07:48:34;11.30;99.90
76293;DHT22;67256;51.154;4.164;2023-11-21T07:51:01;11.30;99.90
76293;DHT22;67256;51.154;4.164;2023-11-21T07:53:30;11.30;99.90
76293;DHT22;67256;51.154;4.164;2023-11-21T07:55:58;11.30;99.90
76293;DHT22;67256;51.154;4.164;2023-11-21T07:58:24;11.40;99.90
76293;DHT22;67256;51.154;4.164;2023-11-21T08:00:51;11.40;99.90
76293;DHT22;67256;51.154;4.164;2023-11-21T08:03:17;11.50;99.90
76293;DHT22;67256;51.154;4.164;2023-11-21T08:05:43;11.40;99.90
76293;DHT22;67256;51.154;4.164;2023-11-21T08:08:09;11.50;99.90
76293;DHT22;67256;51.154;4.164;2023-11-21T08:10:35;11.40;99.90
76293;DHT22;67256;51.154;4.164;2023-11-21T08:13:02;11.40;99.90
76293;DHT22;67256;51.154;4.164;2023-11-21T08:15:29;11.50;99.90
76293;DHT22;67256;51.154;4.164;2023-11-21T08:17:58;11.80;99.90
76293;DHT22;67256;51.154;4.164;2023-11-21T08:20:26;12.00;99.90
76293;DHT22;67256;51.154;4.164;2023-11-21T08:22:53;12.10;99.90
76293;DHT22;67256;51.154;4.164;2023-11-21T08:25:20;12.20;99.90
76293;DHT22;67256;51.154;4.164;2023-11-21T08:27:46;12.20;99.90
76293;DHT22;67256;51.154;4.164;2023-11-21T08:30:13;12.30;99.90
76293;DHT22;67256;51.154;4.164;2023-11-21T08:32:40;12.20;99.90
76293;DHT22;67256;51.154;4.164;2023-11-21T08:35:07;12.20;99.90
76293;DHT22;67256;51.154;4.164;2023-11-21T08:37:33;12.20;99.90
76293;DHT22;67256;51.154;4.164;2023-11-21T08:40:05;12.20;99.90
76293;DHT22;67256;51.154;4.164;2023-11-21T08:42:35;12.30;99.90
76293;DHT22;67256;51.154;4.164;2023-11-21T08:45:01;12.40;99.90
76293;DHT22;67256;51.154;4.164;2023-11-21T08:47:27;12.40;99.90
76293;DHT22;67256;51.154;4.164;2023-11-21T08:49:53;12.40;99.90
76293;DHT22;67256;51.154;4.164;2023-11-21T08:52:19;12.40;99.90
76293;DHT22;67256;51.154;4.164;2023-11-21T08:54:51;12.40;99.90
76293;DHT22;67256;51.154;4.164;2023-11-21T08:57:23;12.50;99.90
76293;DHT22;67256;51.154;4.164;2023-11-21T08:59:49;12.40;99.90
76293;DHT22;67256;51.154;4.164;2023-11-21T09:02:25;12.20;99.90
76293;DHT22;67256;51.154;4.164;2023-11-21T09:04:51;12.20;99.90
76293;DHT22;67256;51.154;4.164;2023-11-21T09:07:21;12.20;99.90
76293;DHT22;67256;51.154;4.164;2023-11-21T09:09:47;12.30;99.90
76293;DHT22;67256;51.154;4.164;2023-11-21T09:12:13;12.20;99.90
76293;DHT22;67256;51.154;4.164;2023-11-21T09:14:40;12.40;99.90
76293;DHT22;67256;51.154;4.164;2023-11-21T09:17:06;12.40;99.90
76293;DHT22;67256;51.154;4.164;2023-11-21T09:19:40;12.30;99.90
76293;DHT22;67256;51.154;4.164;2023-11-21T09:22:06;12.30;99.90
76293;DHT22;67256;51.154;4.164;2023-11-21T09:24:32;12.30;99.90
76293;DHT22;67256;51.154;4.164;2023-11-21T09:26:58;12.50;99.90
76293;DHT22;67256;51.154;4.164;2023-11-21T09:29:26;12.60;99.90
76293;DHT22;67256;51.154;4.164;2023-11-21T09:31:52;12.50;99.90
76293;DHT22;67256;51.154;4.164;2023-11-21T09:34:17;12.60;99.90
76293;DHT22;67256;51.154;4.164;2023-11-21T09:36:47;12.60;99.90
76293;DHT22;67256;51.154;4.164;2023-11-21T09:39:14;12.60;99.90
76293;DHT22;67256;51.154;4.164;2023-11-21T09:41:46;12.60;99.90
76293;DHT22;67256;51.154;4.164;2023-11-21T09:44:18;12.60;99.90
76293;DHT22;67256;51.154;4.164;2023-11-21T09:46:47;12.50;99.90
76293;DHT22;67256;51.154;4.164;2023-11-21T09:49:15;12.30;99.90
76293;DHT22;67256;51.154;4.164;2023-11-21T09:51:43;12.20;99.90
76293;DHT22;67256;51.154;4.164;2023-11-21T09:54:10;12.10;99.90
76293;DHT22;67256;51.154;4.164;2023-11-21T09:56:39;12.10;99.90
76293;DHT22;67256;51.154;4.164;2023-11-21T09:59:06;12.20;99.90
76293;DHT22;67256;51.154;4.164;2023-11-21T10:01:36;12.40;99.90
76293;DHT22;67256;51.154;4.164;2023-11-21T10:04:03;12.40;99.90
76293;DHT22;67256;51.154;4.164;2023-11-21T10:06:31;12.40;99.90
76293;DHT22;67256;51.154;4.164;2023-11-21T10:08:59;12.40;99.90
76293;DHT22;67256;51.154;4.164;2023-11-21T10:11:25;12.40;99.90
76293;DHT22;67256;51.154;4.164;2023-11-21T10:14:02;12.40;99.90
76293;DHT22;67256;51.154;4.164;2023-11-21T10:16:29;12.50;99.90
76293;DHT22;67256;51.154;4.164;2023-11-21T10:18:58;12.60;99.90
76293;DHT22;67256;51.154;4.164;2023-11-21T10:21:25;12.60;99.90
76293;DHT22;67256;51.154;4.164;2023-11-21T10:23:52;12.60;99.90
76293;DHT22;67256;51.154;4.164;2023-11-21T10:26:19;12.50;99.90
76293;DHT22;67256;51.154;4.164;2023-11-21T10:28:59;12.70;99.90
76293;DHT22;67256;51.154;4.164;2023-11-21T10:31:31;12.60;99.90
76293;DHT22;67256;51.154;4.164;2023-11-21T10:34:18;12.80;99.90
76293;DHT22;67256;51.154;4.164;2023-11-21T10:36:45;12.90;99.90
76293;DHT22;67256;51.154;4.164;2023-11-21T10:39:17;12.80;99.80
76293;DHT22;67256;51.154;4.164;2023-11-21T10:41:52;12.90;99.90
76293;DHT22;67256;51.154;4.164;2023-11-21T10:44:18;12.80;99.60
76293;DHT22;67256;51.154;4.164;2023-11-21T10:46:53;12.70;99.90
76293;DHT22;67256;51.154;4.164;2023-11-21T10:49:24;12.70;99.90
76293;DHT22;67256;51.154;4.164;2023-11-21T10:51:51;12.50;99.80
76293;DHT22;67256;51.154;4.164;2023-11-21T10:54:23;12.40;99.90
76293;DHT22;67256;51.154;4.164;2023-11-21T10:56:57;12.40;99.90
76293;DHT22;67256;51.154;4.164;2023-11-21T10:59:29;12.40;99.90
76293;DHT22;67256;51.154;4.164;2023-11-21T11:01:57;12.40;99.60
76293;DHT22;67256;51.154;4.164;2023-11-21T11:04:25;12.50;99.90
76293;DHT22;67256;51.154;4.164;2023-11-21T11:06:57;12.50;99.90
76293;DHT22;67256;51.154;4.164;2023-11-21T11:09:24;12.50;99.80
76293;DHT22;67256;51.154;4.164;2023-11-21T11:11:51;12.50;99.70
76293;DHT22;67256;51.154;4.164;2023-11-21T11:14:19;12.50;99.60
76293;DHT22;67256;51.154;4.164;2023-11-21T11:16:45;12.40;99.60
76293;DHT22;67256;51.154;4.164;2023-11-21T11:19:11;12.40;99.40
76293;DHT22;67256;51.154;4.164;2023-11-21T11:21:59;12.20;99.90
76293;DHT22;67256;51.154;4.164;2023-11-21T11:27:29;12.00;99.90
76293;DHT22;67256;51.154;4.164;2023-11-21T11:32:47;12.00;99.90
76293;DHT22;67256;51.154;4.164;2023-11-21T11:35:38;11.90;99.90
76293;DHT22;67256;51.154;4.164;2023-11-21T11:38:07;11.90;99.90
76293;DHT22;67256;51.154;4.164;2023-11-21T11:40:46;11.90;99.90
76293;DHT22;67256;51.154;4.164;2023-11-21T11:43:12;11.90;99.90
76293;DHT22;67256;51.154;4.164;2023-11-21T11:45:38;12.00;99.90
76293;DHT22;67256;51.154;4.164;2023-11-21T11:48:07;12.00;99.90
76293;DHT22;67256;51.154;4.164;2023-11-21T11:50:34;12.00;99.90
76293;DHT22;67256;51.154;4.164;2023-11-21T11:53:16;12.10;99.90
76293;DHT22;67256;51.154;4.164;2023-11-21T11:55:43;12.00;99.90
76293;DHT22;67256;51.154;4.164;2023-11-21T11:58:09;12.00;99.90
76293;DHT22;67256;51.154;4.164;2023-11-21T12:00:37;12.10;99.90
76293;DHT22;67256;51.154;4.164;2023-11-21T12:03:06;12.20;99.90
76293;DHT22;67256;51.154;4.164;2023-11-21T12:05:34;12.30;99.90
76293;DHT22;67256;51.154;4.164;2023-11-21T12:08:09;12.20;99.90
76293;DHT22;67256;51.154;4.164;2023-11-21T12:10:38;12.00;99.90
76293;DHT22;67256;51.154;4.164;2023-11-21T12:13:09;12.00;99.90
76293;DHT22;67256;51.154;4.164;2023-11-21T12:15:37;11.90;99.90
76293;DHT22;67256;51.154;4.164;2023-11-21T12:18:04;11.90;99.90
76293;DHT22;67256;51.154;4.164;2023-11-21T12:20:31;11.90;99.90
76293;DHT22;67256;51.154;4.164;2023-11-21T12:23:00;11.80;99.90
76293;DHT22;67256;51.154;4.164;2023-11-21T12:25:27;11.70;99.90
76293;DHT22;67256;51.154;4.164;2023-11-21T12:28:00;11.50;99.90
76293;DHT22;67256;51.154;4.164;2023-11-21T12:30:31;11.60;99.90
76293;DHT22;67256;51.154;4.164;2023-11-21T12:32:59;11.60;99.90
76293;DHT22;67256;51.154;4.164;2023-11-21T12:35:27;11.50;99.90
76293;DHT22;67256;51.154;4.164;2023-11-21T12:37:54;11.60;99.90
76293;DHT22;67256;51.154;4.164;2023-11-21T12:40:23;11.70;99.90
76293;DHT22;67256;51.154;4.164;2023-11-21T12:42:52;11.60;99.90
76293;DHT22;67256;51.154;4.164;2023-11-21T12:45:26;11.50;99.90
76293;DHT22;67256;51.154;4.164;2023-11-21T12:47:57;11.50;99.90
76293;DHT22;67256;51.154;4.164;2023-11-21T12:50:26;11.60;99.90
76293;DHT22;67256;51.154;4.164;2023-11-21T12:52:58;11.50;99.90
76293;DHT22;67256;51.154;4.164;2023-11-21T12:55:25;11.40;99.90
76293;DHT22;67256;51.154;4.164;2023-11-21T12:57:55;11.40;99.90
76293;DHT22;67256;51.154;4.164;2023-11-21T13:03:04;11.50;99.90
76293;DHT22;67256;51.154;4.164;2023-11-21T13:05:37;11.50;99.90
76293;DHT22;67256;51.154;4.164;2023-11-21T13:08:16;11.60;99.90
76293;DHT22;67256;51.154;4.164;2023-11-21T13:10:45;11.60;99.90
76293;DHT22;67256;51.154;4.164;2023-11-21T13:13:14;11.60;99.90
76293;DHT22;67256;51.154;4.164;2023-11-21T13:15:51;11.60;99.90
76293;DHT22;67256;51.154;4.164;2023-11-21T13:18:18;11.70;99.90
76293;DHT22;67256;51.154;4.164;2023-11-21T13:20:44;11.60;99.90
76293;DHT22;67256;51.154;4.164;2023-11-21T13:23:11;11.60;99.90
76293;DHT22;67256;51.154;4.164;2023-11-21T13:25:45;11.60;99.90
76293;DHT22;67256;51.154;4.164;2023-11-21T13:28:11;11.60;99.90
76293;DHT22;67256;51.154;4.164;2023-11-21T13:30:38;11.50;99.90
76293;DHT22;67256;51.154;4.164;2023-11-21T13:33:06;11.50;99.90
76293;DHT22;67256;51.154;4.164;2023-11-21T13:35:34;11.40;99.90
76293;DHT22;67256;51.154;4.164;2023-11-21T13:38:08;11.50;99.90
76293;DHT22;67256;51.154;4.164;2023-11-21T13:40:35;11.60;99.90
76293;DHT22;67256;51.154;4.164;2023-11-21T13:43:09;11.50;99.90
76293;DHT22;67256;51.154;4.164;2023-11-21T13:45:41;11.60;99.90
76293;DHT22;67256;51.154;4.164;2023-11-21T13:48:08;11.50;99.90
76293;DHT22;67256;51.154;4.164;2023-11-21T13:50:43;11.60;99.90
76293;DHT22;67256;51.154;4.164;2023-11-21T13:53:24;11.60;99.90
76293;DHT22;67256;51.154;4.164;2023-11-21T13:55:54;11.60;99.90
76293;DHT22;67256;51.154;4.164;2023-11-21T13:58:20;11.60;99.90
76293;DHT22;67256;51.154;4.164;2023-11-21T14:01:13;11.50;99.90
76293;DHT22;67256;51.154;4.164;2023-11-21T14:04:01;11.50;99.90
76293;DHT22;67256;51.154;4.164;2023-11-21T14:06:35;11.60;99.90
76293;DHT22;67256;51.154;4.164;2023-11-21T14:09:11;11.60;99.90
76293;DHT22;67256;51.154;4.164;2023-11-21T14:11:39;11.50;99.90
76293;DHT22;67256;51.154;4.164;2023-11-21T14:14:05;11.60;99.90
76293;DHT22;67256;51.154;4.164;2023-11-21T14:16:31;11.60;99.90
76293;DHT22;67256;51.154;4.164;2023-11-21T14:18:57;11.70;99.90
76293;DHT22;67256;51.154;4.164;2023-11-21T14:21:29;11.60;99.90
76293;DHT22;67256;51.154;4.164;2023-11-21T14:23:55;11.70;99.90
76293;DHT22;67256;51.154;4.164;2023-11-21T14:26:21;11.70;99.90
76293;DHT22;67256;51.154;4.164;2023-11-21T14:28:50;11.60;99.90
76293;DHT22;67256;51.154;4.164;2023-11-21T14:31:16;11.60;99.90
76293;DHT22;67256;51.154;4.164;2023-11-21T14:33:44;11.70;99.80
76293;DHT22;67256;51.154;4.164;2023-11-21T14:36:09;11.70;99.70
76293;DHT22;67256;51.154;4.164;2023-11-21T14:38:38;11.80;99.90
76293;DHT22;67256;51.154;4.164;2023-11-21T14:41:08;11.80;99.70
76293;DHT22;67256;51.154;4.164;2023-11-21T14:43:36;11.60;99.50
76293;DHT22;67256;51.154;4.164;2023-11-21T14:46:04;11.40;99.90
76293;DHT22;67256;51.154;4.164;2023-11-21T14:48:34;11.40;99.90
76293;DHT22;67256;51.154;4.164;2023-11-21T14:51:09;11.40;99.90
76293;DHT22;67256;51.154;4.164;2023-11-21T14:53:54;11.40;99.90
76293;DHT22;67256;51.154;4.164;2023-11-21T14:56:21;11.30;99.90
76293;DHT22;67256;51.154;4.164;2023-11-21T14:58:53;11.30;99.90
76293;DHT22;67256;51.154;4.164;2023-11-21T15:01:20;11.40;99.90
76293;DHT22;67256;51.154;4.164;2023-11-21T15:04:00;11.40;99.90
76293;DHT22;67256;51.154;4.164;2023-11-21T15:06:26;11.50;99.90
76293;DHT22;67256;51.154;4.164;2023-11-21T15:08:56;11.50;99.90
76293;DHT22;67256;51.154;4.164;2023-11-21T15:11:42;11.70;99.90
76293;DHT22;67256;51.154;4.164;2023-11-21T15:14:09;11.60;99.90
76293;DHT22;67256;51.154;4.164;2023-11-21T15:16:38;11.70;99.90
76293;DHT22;67256;51.154;4.164;2023-11-21T15:19:11;11.80;99.90
76293;DHT22;67256;51.154;4.164;2023-11-21T15:21:46;11.80;99.90
76293;DHT22;67256;51.154;4.164;2023-11-21T15:24:12;11.70;99.90
76293;DHT22;67256;51.154;4.164;2023-11-21T15:26:39;11.80;99.80
76293;DHT22;67256;51.154;4.164;2023-11-21T15:29:04;11.70;99.80
76293;DHT22;67256;51.154;4.164;2023-11-21T15:31:30;11.50;99.90
76293;DHT22;67256;51.154;4.164;2023-11-21T15:33:56;11.60;99.90
76293;DHT22;67256;51.154;4.164;2023-11-21T15:36:26;11.50;99.90
76293;DHT22;67256;51.154;4.164;2023-11-21T15:38:53;11.40;99.90
76293;DHT22;67256;51.154;4.164;2023-11-21T15:41:19;11.50;99.90
76293;DHT22;67256;51.154;4.164;2023-11-21T15:43:46;11.50;99.90